sensor_id;sensor_type;location;lat;lon;timestamp;P1;durP1;ratioP1;P2;durP2;ratioP2
5054;SDS011;13829;48.990;8.346;2022-09-27T00:00:43;1.87;;;1.37;;
5054;SDS011;13829;48.990;8.346;2022-09-27T00:03:10;1.43;;;1.30;;
5054;SDS011;13829;48.990;8.346;2022-09-27T00:05:39;1.33;;;1.03;;
5054;SDS011;13829;48.990;8.346;2022-09-27T00:08:06;1.43;;;1.00;;
5054;SDS011;13829;48.990;8.346;2022-09-27T00:10:33;2.37;;;1.13;;
5054;SDS011;13829;48.990;8.346;2022-09-27T00:13:00;2.57;;;1.40;;
5054;SDS011;13829;48.990;8.346;2022-09-27T00:15:28;2.60;;;1.40;;
5054;SDS011;13829;48.990;8.346;2022-09-27T00:17:55;3.47;;;1.50;;
5054;SDS011;13829;48.990;8.346;2022-09-27T00:20:22;1.70;;;1.20;;
5054;SDS011;13829;48.990;8.346;2022-09-27T00:22:51;2.07;;;1.50;;
5054;SDS011;13829;48.990;8.346;2022-09-27T00:25:18;1.67;;;1.30;;
5054;SDS011;13829;48.990;8.346;2022-09-27T00:27:46;1.90;;;1.63;;
5054;SDS011;13829;48.990;8.346;2022-09-27T00:30:14;1.93;;;1.23;;
5054;SDS011;13829;48.990;8.346;2022-09-27T00:32:41;2.83;;;1.57;;
5054;SDS011;13829;48.990;8.346;2022-09-27T00:35:09;3.57;;;1.53;;
5054;SDS011;13829;48.990;8.346;2022-09-27T00:37:36;1.43;;;1.27;;
5054;SDS011;13829;48.990;8.346;2022-09-27T00:40:05;1.47;;;1.37;;
5054;SDS011;13829;48.990;8.346;2022-09-27T00:42:33;2.90;;;1.30;;
5054;SDS011;13829;48.990;8.346;2022-09-27T00:45:05;2.60;;;1.30;;
5054;SDS011;13829;48.990;8.346;2022-09-27T00:47:40;2.17;;;1.20;;
5054;SDS011;13829;48.990;8.346;2022-09-27T00:50:25;1.30;;;1.20;;
5054;SDS011;13829;48.990;8.346;2022-09-27T00:53:01;1.40;;;1.20;;
5054;SDS011;13829;48.990;8.346;2022-09-27T00:55:39;1.40;;;1.30;;
5054;SDS011;13829;48.990;8.346;2022-09-27T00:58:12;1.83;;;1.40;;
5054;SDS011;13829;48.990;8.346;2022-09-27T01:00:46;3.23;;;1.30;;
5054;SDS011;13829;48.990;8.346;2022-09-27T01:03:21;1.70;;;1.30;;
5054;SDS011;13829;48.990;8.346;2022-09-27T01:05:58;2.20;;;1.50;;
5054;SDS011;13829;48.990;8.346;2022-09-27T01:08:26;3.23;;;1.37;;
5054;SDS011;13829;48.990;8.346;2022-09-27T01:10:58;1.77;;;1.40;;
5054;SDS011;13829;48.990;8.346;2022-09-27T01:13:42;1.70;;;1.37;;
5054;SDS011;13829;48.990;8.346;2022-09-27T01:16:32;2.27;;;1.40;;
5054;SDS011;13829;48.990;8.346;2022-09-27T01:19:10;3.60;;;1.50;;
5054;SDS011;13829;48.990;8.346;2022-09-27T01:22:06;1.37;;;1.13;;
5054;SDS011;13829;48.990;8.346;2022-09-27T01:24:49;1.47;;;0.97;;
5054;SDS011;13829;48.990;8.346;2022-09-27T01:27:34;4.30;;;1.27;;
5054;SDS011;13829;48.990;8.346;2022-09-27T01:30:32;1.87;;;0.97;;
5054;SDS011;13829;48.990;8.346;2022-09-27T01:36:17;1.93;;;0.90;;
5054;SDS011;13829;48.990;8.346;2022-09-27T01:38:56;1.27;;;1.10;;
5054;SDS011;13829;48.990;8.346;2022-09-27T01:41:36;1.47;;;1.23;;
5054;SDS011;13829;48.990;8.346;2022-09-27T01:44:14;2.10;;;1.07;;
5054;SDS011;13829;48.990;8.346;2022-09-27T01:46:51;1.93;;;1.00;;
5054;SDS011;13829;48.990;8.346;2022-09-27T01:49:25;2.47;;;1.20;;
5054;SDS011;13829;48.990;8.346;2022-09-27T01:52:01;1.60;;;1.20;;
5054;SDS011;13829;48.990;8.346;2022-09-27T01:54:36;2.97;;;1.20;;
5054;SDS011;13829;48.990;8.346;2022-09-27T01:57:10;1.73;;;1.10;;
5054;SDS011;13829;48.990;8.346;2022-09-27T01:59:46;2.27;;;1.00;;
5054;SDS011;13829;48.990;8.346;2022-09-27T02:02:20;2.50;;;1.10;;
5054;SDS011;13829;48.990;8.346;2022-09-27T02:04:52;2.00;;;1.07;;
5054;SDS011;13829;48.990;8.346;2022-09-27T02:07:26;2.53;;;1.47;;
5054;SDS011;13829;48.990;8.346;2022-09-27T02:10:02;2.63;;;1.37;;
5054;SDS011;13829;48.990;8.346;2022-09-27T02:12:38;2.03;;;1.30;;
5054;SDS011;13829;48.990;8.346;2022-09-27T02:15:15;2.17;;;1.20;;
5054;SDS011;13829;48.990;8.346;2022-09-27T02:17:46;2.80;;;1.60;;
5054;SDS011;13829;48.990;8.346;2022-09-27T02:20:25;3.03;;;1.60;;
5054;SDS011;13829;48.990;8.346;2022-09-27T02:23:01;2.70;;;1.40;;
5054;SDS011;13829;48.990;8.346;2022-09-27T02:25:45;3.70;;;1.57;;
5054;SDS011;13829;48.990;8.346;2022-09-27T02:28:22;4.87;;;1.83;;
5054;SDS011;13829;48.990;8.346;2022-09-27T02:30:55;3.43;;;1.67;;
5054;SDS011;13829;48.990;8.346;2022-09-27T02:33:25;3.00;;;1.40;;
5054;SDS011;13829;48.990;8.346;2022-09-27T02:35:58;5.27;;;1.90;;
5054;SDS011;13829;48.990;8.346;2022-09-27T02:38:27;3.27;;;1.67;;
5054;SDS011;13829;48.990;8.346;2022-09-27T02:40:54;2.57;;;1.70;;
5054;SDS011;13829;48.990;8.346;2022-09-27T02:43:22;4.57;;;1.63;;
5054;SDS011;13829;48.990;8.346;2022-09-27T02:46:00;3.10;;;1.53;;
5054;SDS011;13829;48.990;8.346;2022-09-27T02:48:50;5.17;;;1.60;;
5054;SDS011;13829;48.990;8.346;2022-09-27T02:51:32;4.00;;;1.87;;
5054;SDS011;13829;48.990;8.346;2022-09-27T02:54:17;3.87;;;1.73;;
5054;SDS011;13829;48.990;8.346;2022-09-27T02:56:59;2.73;;;1.70;;
5054;SDS011;13829;48.990;8.346;2022-09-27T02:59:40;4.37;;;2.20;;
5054;SDS011;13829;48.990;8.346;2022-09-27T03:02:20;6.33;;;2.47;;
5054;SDS011;13829;48.990;8.346;2022-09-27T03:05:00;6.23;;;2.40;;
5054;SDS011;13829;48.990;8.346;2022-09-27T03:07:32;5.40;;;2.37;;
5054;SDS011;13829;48.990;8.346;2022-09-27T03:10:02;7.10;;;2.50;;
5054;SDS011;13829;48.990;8.346;2022-09-27T03:12:31;5.03;;;2.40;;
5054;SDS011;13829;48.990;8.346;2022-09-27T03:14:59;7.77;;;2.60;;
5054;SDS011;13829;48.990;8.346;2022-09-27T03:17:26;7.23;;;2.93;;
5054;SDS011;13829;48.990;8.346;2022-09-27T03:19:54;5.97;;;2.13;;
5054;SDS011;13829;48.990;8.346;2022-09-27T03:22:22;6.37;;;2.50;;
5054;SDS011;13829;48.990;8.346;2022-09-27T03:24:50;7.03;;;3.17;;
5054;SDS011;13829;48.990;8.346;2022-09-27T03:27:17;4.57;;;2.40;;
5054;SDS011;13829;48.990;8.346;2022-09-27T03:29:44;6.57;;;2.60;;
5054;SDS011;13829;48.990;8.346;2022-09-27T03:32:12;8.03;;;3.17;;
5054;SDS011;13829;48.990;8.346;2022-09-27T03:34:39;10.60;;;2.80;;
5054;SDS011;13829;48.990;8.346;2022-09-27T03:37:06;8.87;;;3.00;;
5054;SDS011;13829;48.990;8.346;2022-09-27T03:39:34;10.27;;;2.80;;
5054;SDS011;13829;48.990;8.346;2022-09-27T03:42:02;5.93;;;2.23;;
5054;SDS011;13829;48.990;8.346;2022-09-27T03:44:29;6.23;;;2.93;;
5054;SDS011;13829;48.990;8.346;2022-09-27T03:46:56;6.93;;;2.77;;
5054;SDS011;13829;48.990;8.346;2022-09-27T03:49:24;5.30;;;2.70;;
5054;SDS011;13829;48.990;8.346;2022-09-27T03:51:51;10.83;;;3.30;;
5054;SDS011;13829;48.990;8.346;2022-09-27T03:54:18;4.67;;;2.37;;
5054;SDS011;13829;48.990;8.346;2022-09-27T03:56:47;9.00;;;3.10;;
5054;SDS011;13829;48.990;8.346;2022-09-27T03:59:14;6.73;;;2.90;;
5054;SDS011;13829;48.990;8.346;2022-09-27T04:01:41;8.53;;;2.60;;
5054;SDS011;13829;48.990;8.346;2022-09-27T04:04:09;8.27;;;2.60;;
5054;SDS011;13829;48.990;8.346;2022-09-27T04:06:36;7.97;;;2.57;;
5054;SDS011;13829;48.990;8.346;2022-09-27T04:09:03;7.73;;;2.73;;
5054;SDS011;13829;48.990;8.346;2022-09-27T04:11:30;8.10;;;2.80;;
5054;SDS011;13829;48.990;8.346;2022-09-27T04:13:59;5.93;;;2.87;;
5054;SDS011;13829;48.990;8.346;2022-09-27T04:16:26;4.60;;;2.20;;
5054;SDS011;13829;48.990;8.346;2022-09-27T04:18:53;6.97;;;2.70;;
5054;SDS011;13829;48.990;8.346;2022-09-27T04:21:20;7.30;;;2.73;;
5054;SDS011;13829;48.990;8.346;2022-09-27T04:23:48;6.53;;;2.50;;
5054;SDS011;13829;48.990;8.346;2022-09-27T04:26:15;7.00;;;2.60;;
5054;SDS011;13829;48.990;8.346;2022-09-27T04:28:42;9.40;;;2.40;;
5054;SDS011;13829;48.990;8.346;2022-09-27T04:31:11;9.60;;;3.30;;
5054;SDS011;13829;48.990;8.346;2022-09-27T04:33:38;9.17;;;2.73;;
5054;SDS011;13829;48.990;8.346;2022-09-27T04:36:06;4.40;;;2.37;;
5054;SDS011;13829;48.990;8.346;2022-09-27T04:38:52;7.43;;;2.40;;
5054;SDS011;13829;48.990;8.346;2022-09-27T04:41:20;5.87;;;2.70;;
5054;SDS011;13829;48.990;8.346;2022-09-27T04:43:49;6.00;;;2.37;;
5054;SDS011;13829;48.990;8.346;2022-09-27T04:46:18;4.97;;;2.30;;
5054;SDS011;13829;48.990;8.346;2022-09-27T04:48:45;6.13;;;2.50;;
5054;SDS011;13829;48.990;8.346;2022-09-27T04:51:13;7.70;;;2.40;;
5054;SDS011;13829;48.990;8.346;2022-09-27T04:53:41;4.90;;;2.37;;
5054;SDS011;13829;48.990;8.346;2022-09-27T04:56:09;7.67;;;2.50;;
5054;SDS011;13829;48.990;8.346;2022-09-27T04:58:36;8.63;;;2.30;;
5054;SDS011;13829;48.990;8.346;2022-09-27T05:01:04;5.83;;;2.60;;
5054;SDS011;13829;48.990;8.346;2022-09-27T05:03:34;3.40;;;2.03;;
5054;SDS011;13829;48.990;8.346;2022-09-27T05:06:02;3.97;;;1.93;;
5054;SDS011;13829;48.990;8.346;2022-09-27T05:08:29;6.30;;;2.30;;
5054;SDS011;13829;48.990;8.346;2022-09-27T05:10:56;5.23;;;2.30;;
5054;SDS011;13829;48.990;8.346;2022-09-27T05:13:23;2.83;;;2.20;;
5054;SDS011;13829;48.990;8.346;2022-09-27T05:15:50;7.20;;;2.30;;
5054;SDS011;13829;48.990;8.346;2022-09-27T05:18:18;2.80;;;1.90;;
5054;SDS011;13829;48.990;8.346;2022-09-27T05:20:46;5.03;;;2.13;;
5054;SDS011;13829;48.990;8.346;2022-09-27T05:23:13;3.60;;;1.60;;
5054;SDS011;13829;48.990;8.346;2022-09-27T05:25:40;6.30;;;1.70;;
5054;SDS011;13829;48.990;8.346;2022-09-27T05:28:07;4.03;;;1.90;;
5054;SDS011;13829;48.990;8.346;2022-09-27T05:30:34;4.83;;;2.23;;
5054;SDS011;13829;48.990;8.346;2022-09-27T05:33:02;5.13;;;2.20;;
5054;SDS011;13829;48.990;8.346;2022-09-27T05:35:29;3.27;;;1.77;;
5054;SDS011;13829;48.990;8.346;2022-09-27T05:37:59;4.73;;;1.73;;
5054;SDS011;13829;48.990;8.346;2022-09-27T05:40:27;3.20;;;1.70;;
5054;SDS011;13829;48.990;8.346;2022-09-27T05:42:55;5.03;;;1.87;;
5054;SDS011;13829;48.990;8.346;2022-09-27T05:45:22;3.87;;;1.70;;
5054;SDS011;13829;48.990;8.346;2022-09-27T05:47:51;4.07;;;1.93;;
5054;SDS011;13829;48.990;8.346;2022-09-27T05:50:20;2.90;;;1.50;;
5054;SDS011;13829;48.990;8.346;2022-09-27T05:52:48;1.67;;;1.47;;
5054;SDS011;13829;48.990;8.346;2022-09-27T05:55:16;2.97;;;1.33;;
5054;SDS011;13829;48.990;8.346;2022-09-27T05:57:54;3.40;;;1.60;;
5054;SDS011;13829;48.990;8.346;2022-09-27T06:00:23;3.10;;;1.50;;
5054;SDS011;13829;48.990;8.346;2022-09-27T06:02:53;2.37;;;1.60;;
5054;SDS011;13829;48.990;8.346;2022-09-27T06:05:21;2.50;;;1.47;;
5054;SDS011;13829;48.990;8.346;2022-09-27T06:07:49;2.80;;;1.63;;
5054;SDS011;13829;48.990;8.346;2022-09-27T06:10:18;4.00;;;1.47;;
5054;SDS011;13829;48.990;8.346;2022-09-27T06:12:46;2.90;;;1.57;;
5054;SDS011;13829;48.990;8.346;2022-09-27T06:15:14;2.73;;;1.20;;
5054;SDS011;13829;48.990;8.346;2022-09-27T06:17:41;1.57;;;1.13;;
5054;SDS011;13829;48.990;8.346;2022-09-27T06:20:08;2.70;;;1.13;;
5054;SDS011;13829;48.990;8.346;2022-09-27T06:22:36;3.37;;;1.33;;
5054;SDS011;13829;48.990;8.346;2022-09-27T06:25:03;3.13;;;1.50;;
5054;SDS011;13829;48.990;8.346;2022-09-27T06:27:33;1.70;;;1.00;;
5054;SDS011;13829;48.990;8.346;2022-09-27T06:30:00;1.30;;;1.00;;
5054;SDS011;13829;48.990;8.346;2022-09-27T06:32:27;2.70;;;1.17;;
5054;SDS011;13829;48.990;8.346;2022-09-27T06:34:54;1.90;;;1.00;;
5054;SDS011;13829;48.990;8.346;2022-09-27T06:37:23;2.37;;;1.37;;
5054;SDS011;13829;48.990;8.346;2022-09-27T06:39:51;1.23;;;1.10;;
5054;SDS011;13829;48.990;8.346;2022-09-27T06:42:20;1.57;;;1.17;;
5054;SDS011;13829;48.990;8.346;2022-09-27T06:44:48;1.93;;;1.20;;
5054;SDS011;13829;48.990;8.346;2022-09-27T06:47:16;1.37;;;1.00;;
5054;SDS011;13829;48.990;8.346;2022-09-27T06:49:43;2.33;;;1.00;;
5054;SDS011;13829;48.990;8.346;2022-09-27T06:52:10;1.67;;;1.00;;
5054;SDS011;13829;48.990;8.346;2022-09-27T06:54:38;1.53;;;0.97;;
5054;SDS011;13829;48.990;8.346;2022-09-27T06:57:05;1.30;;;1.20;;
5054;SDS011;13829;48.990;8.346;2022-09-27T06:59:32;1.87;;;1.10;;
5054;SDS011;13829;48.990;8.346;2022-09-27T07:02:17;1.20;;;0.90;;
5054;SDS011;13829;48.990;8.346;2022-09-27T07:04:44;3.10;;;1.10;;
5054;SDS011;13829;48.990;8.346;2022-09-27T07:07:12;1.30;;;1.00;;
5054;SDS011;13829;48.990;8.346;2022-09-27T07:09:39;2.90;;;1.10;;
5054;SDS011;13829;48.990;8.346;2022-09-27T07:12:08;2.03;;;0.80;;
5054;SDS011;13829;48.990;8.346;2022-09-27T07:14:37;2.20;;;0.93;;
5054;SDS011;13829;48.990;8.346;2022-09-27T07:17:04;2.90;;;1.17;;
5054;SDS011;13829;48.990;8.346;2022-09-27T07:19:33;1.53;;;0.90;;
5054;SDS011;13829;48.990;8.346;2022-09-27T07:22:01;1.27;;;0.80;;
5054;SDS011;13829;48.990;8.346;2022-09-27T07:24:28;1.27;;;0.90;;
5054;SDS011;13829;48.990;8.346;2022-09-27T07:26:55;1.10;;;0.87;;
5054;SDS011;13829;48.990;8.346;2022-09-27T07:29:22;2.70;;;1.03;;
5054;SDS011;13829;48.990;8.346;2022-09-27T07:31:49;1.60;;;1.00;;
5054;SDS011;13829;48.990;8.346;2022-09-27T07:34:17;1.67;;;1.20;;
5054;SDS011;13829;48.990;8.346;2022-09-27T07:36:46;3.90;;;1.23;;
5054;SDS011;13829;48.990;8.346;2022-09-27T07:39:13;2.80;;;1.10;;
5054;SDS011;13829;48.990;8.346;2022-09-27T07:41:41;2.17;;;1.20;;
5054;SDS011;13829;48.990;8.346;2022-09-27T07:44:09;2.07;;;1.40;;
5054;SDS011;13829;48.990;8.346;2022-09-27T07:46:37;1.47;;;1.10;;
5054;SDS011;13829;48.990;8.346;2022-09-27T07:49:04;1.50;;;1.10;;
5054;SDS011;13829;48.990;8.346;2022-09-27T07:51:31;2.03;;;1.00;;
5054;SDS011;13829;48.990;8.346;2022-09-27T07:54:00;1.77;;;1.20;;
5054;SDS011;13829;48.990;8.346;2022-09-27T07:56:28;1.10;;;1.00;;
5054;SDS011;13829;48.990;8.346;2022-09-27T07:58:55;1.63;;;1.23;;
5054;SDS011;13829;48.990;8.346;2022-09-27T08:01:22;4.13;;;1.20;;
5054;SDS011;13829;48.990;8.346;2022-09-27T08:03:49;2.53;;;1.27;;
5054;SDS011;13829;48.990;8.346;2022-09-27T08:06:17;1.80;;;1.30;;
5054;SDS011;13829;48.990;8.346;2022-09-27T08:08:44;1.43;;;1.10;;
5054;SDS011;13829;48.990;8.346;2022-09-27T08:11:13;2.07;;;1.30;;
5054;SDS011;13829;48.990;8.346;2022-09-27T08:13:42;1.67;;;1.33;;
5054;SDS011;13829;48.990;8.346;2022-09-27T08:16:10;2.60;;;1.33;;
5054;SDS011;13829;48.990;8.346;2022-09-27T08:18:38;1.73;;;1.30;;
5054;SDS011;13829;48.990;8.346;2022-09-27T08:21:05;3.83;;;1.60;;
5054;SDS011;13829;48.990;8.346;2022-09-27T08:23:32;2.43;;;1.50;;
5054;SDS011;13829;48.990;8.346;2022-09-27T08:26:00;4.00;;;1.40;;
5054;SDS011;13829;48.990;8.346;2022-09-27T08:28:30;2.03;;;1.30;;
5054;SDS011;13829;48.990;8.346;2022-09-27T08:30:57;5.00;;;1.60;;
5054;SDS011;13829;48.990;8.346;2022-09-27T08:33:25;5.00;;;1.57;;
5054;SDS011;13829;48.990;8.346;2022-09-27T08:35:52;2.40;;;1.30;;
5054;SDS011;13829;48.990;8.346;2022-09-27T08:38:20;1.97;;;1.30;;
5054;SDS011;13829;48.990;8.346;2022-09-27T08:40:49;3.40;;;1.40;;
5054;SDS011;13829;48.990;8.346;2022-09-27T08:43:27;2.80;;;1.50;;
5054;SDS011;13829;48.990;8.346;2022-09-27T08:46:11;2.13;;;1.27;;
5054;SDS011;13829;48.990;8.346;2022-09-27T08:48:53;3.90;;;1.67;;
5054;SDS011;13829;48.990;8.346;2022-09-27T08:51:30;3.00;;;1.43;;
5054;SDS011;13829;48.990;8.346;2022-09-27T08:54:01;4.00;;;2.00;;
5054;SDS011;13829;48.990;8.346;2022-09-27T08:56:33;3.57;;;1.60;;
5054;SDS011;13829;48.990;8.346;2022-09-27T08:59:05;4.00;;;1.87;;
5054;SDS011;13829;48.990;8.346;2022-09-27T09:01:39;8.00;;;2.30;;
5054;SDS011;13829;48.990;8.346;2022-09-27T09:04:08;3.43;;;2.40;;
5054;SDS011;13829;48.990;8.346;2022-09-27T09:06:42;7.70;;;2.70;;
5054;SDS011;13829;48.990;8.346;2022-09-27T09:09:29;6.90;;;2.13;;
5054;SDS011;13829;48.990;8.346;2022-09-27T09:12:10;6.67;;;2.40;;
5054;SDS011;13829;48.990;8.346;2022-09-27T09:15:19;4.80;;;2.50;;
5054;SDS011;13829;48.990;8.346;2022-09-27T09:18:21;2.93;;;2.33;;
5054;SDS011;13829;48.990;8.346;2022-09-27T09:21:10;5.90;;;2.30;;
5054;SDS011;13829;48.990;8.346;2022-09-27T09:23:54;3.27;;;2.80;;
5054;SDS011;13829;48.990;8.346;2022-09-27T09:26:52;5.30;;;2.50;;
5054;SDS011;13829;48.990;8.346;2022-09-27T09:29:35;5.80;;;2.27;;
5054;SDS011;13829;48.990;8.346;2022-09-27T09:32:30;4.63;;;2.20;;
5054;SDS011;13829;48.990;8.346;2022-09-27T09:35:11;1.80;;;1.60;;
5054;SDS011;13829;48.990;8.346;2022-09-27T09:37:44;6.17;;;1.60;;
5054;SDS011;13829;48.990;8.346;2022-09-27T09:40:17;2.07;;;1.40;;
5054;SDS011;13829;48.990;8.346;2022-09-27T09:42:51;3.10;;;1.53;;
5054;SDS011;13829;48.990;8.346;2022-09-27T09:45:24;3.13;;;1.50;;
5054;SDS011;13829;48.990;8.346;2022-09-27T09:47:58;3.57;;;2.00;;
5054;SDS011;13829;48.990;8.346;2022-09-27T09:50:34;4.27;;;2.07;;
5054;SDS011;13829;48.990;8.346;2022-09-27T09:53:10;4.47;;;1.70;;
5054;SDS011;13829;48.990;8.346;2022-09-27T09:55:42;3.73;;;1.70;;
5054;SDS011;13829;48.990;8.346;2022-09-27T09:58:19;3.67;;;1.80;;
5054;SDS011;13829;48.990;8.346;2022-09-27T10:00:52;3.37;;;1.93;;
5054;SDS011;13829;48.990;8.346;2022-09-27T10:03:35;2.37;;;1.70;;
5054;SDS011;13829;48.990;8.346;2022-09-27T10:06:02;2.40;;;1.70;;
5054;SDS011;13829;48.990;8.346;2022-09-27T10:08:29;5.73;;;2.17;;
5054;SDS011;13829;48.990;8.346;2022-09-27T10:10:57;2.87;;;1.90;;
5054;SDS011;13829;48.990;8.346;2022-09-27T10:13:24;3.93;;;2.33;;
5054;SDS011;13829;48.990;8.346;2022-09-27T10:15:53;2.80;;;2.10;;
5054;SDS011;13829;48.990;8.346;2022-09-27T10:18:28;4.80;;;2.30;;
5054;SDS011;13829;48.990;8.346;2022-09-27T10:20:58;8.40;;;2.67;;
5054;SDS011;13829;48.990;8.346;2022-09-27T10:23:32;4.50;;;2.03;;
5054;SDS011;13829;48.990;8.346;2022-09-27T10:25:59;2.37;;;2.00;;
5054;SDS011;13829;48.990;8.346;2022-09-27T10:28:33;6.37;;;3.53;;
5054;SDS011;13829;48.990;8.346;2022-09-27T10:31:03;5.50;;;2.70;;
5054;SDS011;13829;48.990;8.346;2022-09-27T10:33:34;6.07;;;2.80;;
5054;SDS011;13829;48.990;8.346;2022-09-27T10:36:19;8.50;;;2.90;;
5054;SDS011;13829;48.990;8.346;2022-09-27T10:38:51;4.00;;;1.83;;
5054;SDS011;13829;48.990;8.346;2022-09-27T10:41:22;2.03;;;1.10;;
5054;SDS011;13829;48.990;8.346;2022-09-27T10:43:53;3.23;;;1.10;;
5054;SDS011;13829;48.990;8.346;2022-09-27T10:46:23;3.60;;;0.93;;
5054;SDS011;13829;48.990;8.346;2022-09-27T10:49:07;2.97;;;0.87;;
5054;SDS011;13829;48.990;8.346;2022-09-27T10:51:44;1.53;;;0.90;;
5054;SDS011;13829;48.990;8.346;2022-09-27T10:54:17;1.23;;;0.60;;
5054;SDS011;13829;48.990;8.346;2022-09-27T10:56:53;0.70;;;0.60;;
5054;SDS011;13829;48.990;8.346;2022-09-27T10:59:24;3.23;;;0.70;;
5054;SDS011;13829;48.990;8.346;2022-09-27T11:01:55;1.90;;;0.60;;
5054;SDS011;13829;48.990;8.346;2022-09-27T11:04:27;0.70;;;0.50;;
5054;SDS011;13829;48.990;8.346;2022-09-27T11:07:13;1.10;;;0.80;;
5054;SDS011;13829;48.990;8.346;2022-09-27T11:09:45;1.70;;;0.70;;
5054;SDS011;13829;48.990;8.346;2022-09-27T11:12:15;1.53;;;0.70;;
5054;SDS011;13829;48.990;8.346;2022-09-27T11:14:48;0.90;;;0.60;;
5054;SDS011;13829;48.990;8.346;2022-09-27T11:17:26;1.73;;;0.83;;
5054;SDS011;13829;48.990;8.346;2022-09-27T11:20:11;1.43;;;0.70;;
5054;SDS011;13829;48.990;8.346;2022-09-27T11:23:00;2.03;;;0.70;;
5054;SDS011;13829;48.990;8.346;2022-09-27T11:25:57;2.47;;;0.77;;
5054;SDS011;13829;48.990;8.346;2022-09-27T11:28:44;1.43;;;0.63;;
5054;SDS011;13829;48.990;8.346;2022-09-27T11:31:27;0.90;;;0.80;;
5054;SDS011;13829;48.990;8.346;2022-09-27T11:34:13;2.40;;;0.80;;
5054;SDS011;13829;48.990;8.346;2022-09-27T11:37:14;2.03;;;0.90;;
5054;SDS011;13829;48.990;8.346;2022-09-27T11:39:57;1.67;;;0.80;;
5054;SDS011;13829;48.990;8.346;2022-09-27T11:42:47;1.20;;;1.07;;
5054;SDS011;13829;48.990;8.346;2022-09-27T11:45:35;1.40;;;1.10;;
5054;SDS011;13829;48.990;8.346;2022-09-27T11:48:27;2.80;;;1.20;;
5054;SDS011;13829;48.990;8.346;2022-09-27T11:51:23;1.83;;;1.40;;
5054;SDS011;13829;48.990;8.346;2022-09-27T11:57:08;1.43;;;1.13;;
5054;SDS011;13829;48.990;8.346;2022-09-27T11:59:54;1.77;;;1.10;;
5054;SDS011;13829;48.990;8.346;2022-09-27T12:02:44;0.87;;;0.80;;
5054;SDS011;13829;48.990;8.346;2022-09-27T12:05:46;2.47;;;1.40;;
5054;SDS011;13829;48.990;8.346;2022-09-27T12:08:30;1.77;;;1.00;;
5054;SDS011;13829;48.990;8.346;2022-09-27T12:11:15;1.63;;;1.00;;
5054;SDS011;13829;48.990;8.346;2022-09-27T12:13:50;4.60;;;1.10;;
5054;SDS011;13829;48.990;8.346;2022-09-27T12:16:23;3.03;;;1.10;;
5054;SDS011;13829;48.990;8.346;2022-09-27T12:18:52;2.27;;;1.07;;
5054;SDS011;13829;48.990;8.346;2022-09-27T12:21:21;2.23;;;1.30;;
5054;SDS011;13829;48.990;8.346;2022-09-27T12:23:51;1.83;;;1.30;;
5054;SDS011;13829;48.990;8.346;2022-09-27T12:26:23;5.97;;;1.23;;
5054;SDS011;13829;48.990;8.346;2022-09-27T12:28:58;2.47;;;1.30;;
5054;SDS011;13829;48.990;8.346;2022-09-27T12:31:39;1.87;;;0.90;;
5054;SDS011;13829;48.990;8.346;2022-09-27T12:34:16;6.40;;;1.43;;
5054;SDS011;13829;48.990;8.346;2022-09-27T12:36:52;3.70;;;0.97;;
5054;SDS011;13829;48.990;8.346;2022-09-27T12:39:28;1.93;;;1.37;;
5054;SDS011;13829;48.990;8.346;2022-09-27T12:42:13;3.13;;;1.40;;
5054;SDS011;13829;48.990;8.346;2022-09-27T12:44:48;2.33;;;1.10;;
5054;SDS011;13829;48.990;8.346;2022-09-27T12:47:31;1.80;;;1.10;;
5054;SDS011;13829;48.990;8.346;2022-09-27T12:50:18;2.80;;;1.23;;
5054;SDS011;13829;48.990;8.346;2022-09-27T12:52:56;1.63;;;1.20;;
5054;SDS011;13829;48.990;8.346;2022-09-27T12:55:39;2.13;;;1.20;;
5054;SDS011;13829;48.990;8.346;2022-09-27T12:58:43;2.30;;;1.23;;
5054;SDS011;13829;48.990;8.346;2022-09-27T13:01:45;3.23;;;1.47;;
5054;SDS011;13829;48.990;8.346;2022-09-27T13:04:46;1.63;;;1.20;;
5054;SDS011;13829;48.990;8.346;2022-09-27T13:07:34;2.47;;;1.40;;
5054;SDS011;13829;48.990;8.346;2022-09-27T13:10:22;3.47;;;1.60;;
5054;SDS011;13829;48.990;8.346;2022-09-27T13:13:11;2.27;;;1.13;;
5054;SDS011;13829;48.990;8.346;2022-09-27T13:15:45;1.10;;;0.90;;
5054;SDS011;13829;48.990;8.346;2022-09-27T13:18:29;2.30;;;1.10;;
5054;SDS011;13829;48.990;8.346;2022-09-27T13:24:38;2.13;;;0.97;;
5054;SDS011;13829;48.990;8.346;2022-09-27T13:36:16;2.23;;;1.10;;
5054;SDS011;13829;48.990;8.346;2022-09-27T13:39:17;1.43;;;0.90;;
5054;SDS011;13829;48.990;8.346;2022-09-27T13:41:54;1.60;;;1.00;;
5054;SDS011;13829;48.990;8.346;2022-09-27T13:44:37;2.67;;;0.80;;
5054;SDS011;13829;48.990;8.346;2022-09-27T13:47:30;1.40;;;0.90;;
5054;SDS011;13829;48.990;8.346;2022-09-27T13:50:15;1.00;;;0.73;;
5054;SDS011;13829;48.990;8.346;2022-09-27T13:52:54;1.37;;;0.70;;
5054;SDS011;13829;48.990;8.346;2022-09-27T13:55:39;1.47;;;0.90;;
5054;SDS011;13829;48.990;8.346;2022-09-27T13:58:14;1.83;;;0.90;;
5054;SDS011;13829;48.990;8.346;2022-09-27T14:01:10;1.43;;;0.80;;
5054;SDS011;13829;48.990;8.346;2022-09-27T14:03:52;2.20;;;1.10;;
5054;SDS011;13829;48.990;8.346;2022-09-27T14:06:29;1.90;;;0.90;;
5054;SDS011;13829;48.990;8.346;2022-09-27T14:09:02;1.00;;;0.90;;
5054;SDS011;13829;48.990;8.346;2022-09-27T14:11:33;3.90;;;1.20;;
5054;SDS011;13829;48.990;8.346;2022-09-27T14:14:05;2.47;;;1.23;;
5054;SDS011;13829;48.990;8.346;2022-09-27T14:16:42;3.37;;;1.30;;
5054;SDS011;13829;48.990;8.346;2022-09-27T14:19:12;2.20;;;1.10;;
5054;SDS011;13829;48.990;8.346;2022-09-27T14:21:46;1.83;;;1.20;;
5054;SDS011;13829;48.990;8.346;2022-09-27T14:24:24;2.77;;;1.00;;
5054;SDS011;13829;48.990;8.346;2022-09-27T14:27:05;3.47;;;1.00;;
5054;SDS011;13829;48.990;8.346;2022-09-27T14:29:42;1.17;;;0.90;;
5054;SDS011;13829;48.990;8.346;2022-09-27T14:32:13;0.90;;;0.90;;
5054;SDS011;13829;48.990;8.346;2022-09-27T14:34:43;1.47;;;1.30;;
5054;SDS011;13829;48.990;8.346;2022-09-27T14:37:18;1.43;;;1.17;;
5054;SDS011;13829;48.990;8.346;2022-09-27T14:39:55;2.57;;;1.00;;
5054;SDS011;13829;48.990;8.346;2022-09-27T14:42:28;1.37;;;0.93;;
5054;SDS011;13829;48.990;8.346;2022-09-27T14:45:02;2.40;;;1.13;;
5054;SDS011;13829;48.990;8.346;2022-09-27T14:47:43;1.90;;;1.07;;
5054;SDS011;13829;48.990;8.346;2022-09-27T14:50:15;1.67;;;1.03;;
5054;SDS011;13829;48.990;8.346;2022-09-27T14:52:48;1.87;;;0.87;;
5054;SDS011;13829;48.990;8.346;2022-09-27T14:55:20;1.83;;;0.80;;
5054;SDS011;13829;48.990;8.346;2022-09-27T14:57:49;1.80;;;0.77;;
5054;SDS011;13829;48.990;8.346;2022-09-27T15:00:20;3.37;;;1.07;;
5054;SDS011;13829;48.990;8.346;2022-09-27T15:02:50;2.63;;;0.93;;
5054;SDS011;13829;48.990;8.346;2022-09-27T15:05:21;1.33;;;0.80;;
5054;SDS011;13829;48.990;8.346;2022-09-27T15:07:53;2.27;;;0.80;;
5054;SDS011;13829;48.990;8.346;2022-09-27T15:10:26;1.90;;;0.93;;
5054;SDS011;13829;48.990;8.346;2022-09-27T15:12:56;5.80;;;1.30;;
5054;SDS011;13829;48.990;8.346;2022-09-27T15:15:27;2.13;;;1.30;;
5054;SDS011;13829;48.990;8.346;2022-09-27T15:17:58;2.90;;;1.30;;
5054;SDS011;13829;48.990;8.346;2022-09-27T15:20:28;1.77;;;1.10;;
5054;SDS011;13829;48.990;8.346;2022-09-27T15:22:59;1.43;;;1.03;;
5054;SDS011;13829;48.990;8.346;2022-09-27T15:25:28;2.20;;;1.13;;
5054;SDS011;13829;48.990;8.346;2022-09-27T15:28:00;2.90;;;1.20;;
5054;SDS011;13829;48.990;8.346;2022-09-27T15:30:33;2.10;;;1.50;;
5054;SDS011;13829;48.990;8.346;2022-09-27T15:33:03;2.60;;;1.30;;
5054;SDS011;13829;48.990;8.346;2022-09-27T15:35:33;2.17;;;0.90;;
5054;SDS011;13829;48.990;8.346;2022-09-27T15:40:57;3.40;;;1.10;;
5054;SDS011;13829;48.990;8.346;2022-09-27T15:43:31;2.40;;;1.20;;
5054;SDS011;13829;48.990;8.346;2022-09-27T15:46:04;3.07;;;1.60;;
5054;SDS011;13829;48.990;8.346;2022-09-27T15:51:48;4.37;;;1.30;;
5054;SDS011;13829;48.990;8.346;2022-09-27T15:54:18;2.67;;;1.47;;
5054;SDS011;13829;48.990;8.346;2022-09-27T15:56:46;2.77;;;1.60;;
5054;SDS011;13829;48.990;8.346;2022-09-27T15:59:16;1.90;;;1.30;;
5054;SDS011;13829;48.990;8.346;2022-09-27T16:01:47;4.60;;;1.80;;
5054;SDS011;13829;48.990;8.346;2022-09-27T16:04:15;3.30;;;1.47;;